Terminal Aerodrome Forecast
Issued by NWS Cleveland, OH

Home | Current Version | Previous Version | Graphics & Text | Print | Product List | Glossary On
Versions: 1 2 3 4 5 6 7 8 9 10 11 12 13 14 15 16 17 18 19 20 21 22 23 24 25 26 27 28 29
691
FTUS41 KCLE 270532
TAFCLE
TAF
KCLE 270532Z 2706/2812 04010KT P6SM OVC012
     FM271200 06010KT P6SM SCT015
     FM271800 04015G22KT P6SM SCT250
     FM280100 06008KT P6SM BKN200
     FM280900 08008KT P6SM VCSH BKN035=

USA.gov is the U.S. government's official web portal to all federal, state and local government web resources and services.